Alexander, NC (28701)

5:14 AM EDT on April 21, 2018 (GMT -0400)
Alexander | | Change Station
Active Advisory: Frost Advisory

Elev 2038 ft 35.70 °N, 82.63 °W | Updated 4 minutes ago

Clear
Clear
33.1 °F
Feels Like 33 °F
N
0.0
Wind Variable Wind from North
Gusts 1.0 mph

Today
High -- | Low -- °F
--% Chance of Precip.
Yesterday
High -- | Low -- °F
Precip. -- in
Pressure 30.33 in
Visibility 10.0 miles
Clouds Clear
Windchill 33 °F
Dew Point 29 °F
Humidity 84%
Rainfall 0.00 in
Snow Depth Not available.
6:50 AM 8:08 PM
Waxing Crescent, 33% visible
METAR KAVL 210854Z AUTO 00000KT 10SM CLR 03/M01 A3035 RMK AO2 SLP271 T00281006 52001
Pressure 30.33 in
Visibility 10.0 miles
Clouds Clear
Windchill 33 °F
Dew Point 29 °F
Humidity 84%
Rainfall 0.00 in
Snow Depth Not available.
6:50 AM 8:08 PM
Waxing Crescent, 33% visible
METAR KAVL 210854Z AUTO 00000KT 10SM CLR 03/M01 A3035 RMK AO2 SLP271 T00281006 52001

Get Your Daily Forecast Email!

Thanks for signing up!

Be on the lookout for a verification email in your inbox.

You'll start receiving severe weather alerts in your inbox..

×

10-Day Weather Forecast

Almanac

Astronomy

Apr. 21, 2018 Rise Set
Actual Time
Civil Twilight
Nautical Twilight
Astronomical Twilight
Moon
Length of Visible Light
Length of Day
Tomorrow will be .
, % of the Moon is Illuminated

Today's Extremes

State Highs State Lows

Community

WunderPhotos

Category 6

Welcome to Category 6. This is the collective home for Weather Underground's featured writeups by Dr. Jeff Masters (right), Bob Henson (left), Chris Burt, and other regular contributors.

Nearby

Air Quality

  Air Quality AQ Index Pollutant
Not available.

Snow Depth

Station Depth Elevation

Earthquake Activity

City Distance Mag. Time & Date
Minimum magnitude displayed is 2.5.

Coastal Water Temperatures

Place Temperature

Stations

Nearby Weather Stations

Station Location Temp. Windchill Dew Point Humidity Wind Precip. Elev Updated Type
                   

Watches & Warnings

Frost Advisory
Issued: 2:02 AM EDT Apr. 21, 2018 – National Weather Service

... Frost advisory remains in effect until 9 am EDT this morning...

* locations... the central and southern mountains of North
Carolina and also Rabun County in northeast Georgia.

* Temperatures... lows in the mid 30s. Highs in the mid 60s.

* Winds... southeast 5 mph or less.

* Impacts... frost and freeze conditions may damage sensitive
vegetation. Take steps now to protect tender plants from the
cold.

Precautionary/preparedness actions...

A frost advisory means that widespread frost is expected.
Sensitive outdoor plants may be killed if left uncovered.



Sgl